Terminal Aerodrome Forecast
Issued by NWS Twin Cities, MN

Home | Current Version | Previous Version | Text Only | Print | Product List | Glossary On
Versions: 1 2 3 4 5 6 7 8 9 10 11 12 13 14 15 16 17 18
000
FTUS43 KMPX 052145 AAA
TAFSTC
TAF AMD
KSTC 052145Z 0522/0618 14015G25KT P6SM OVC060
     FM060000 12010KT P6SM SCT025 OVC050
     FM060500 12010KT P6SM VCSH OVC015
     FM061200 12013G20KT 5SM -RA BR SCT015 BKN025=

USA.gov is the U.S. government's official web portal to all federal, state and local government web resources and services.